createdAt,value
2018-04-14T00:02:00.393Z,89.07
2018-04-14T00:04:28.841Z,85.40
2018-04-14T00:06:57.243Z,86.20
2018-04-14T00:09:25.655Z,78.53
2018-04-14T00:11:54.046Z,81.80
2018-04-14T00:14:22.463Z,74.47
2018-04-14T00:16:50.821Z,84.97
2018-04-14T00:19:19.289Z,87.57
2018-04-14T00:21:47.709Z,77.93
2018-04-14T00:24:16.123Z,72.47
2018-04-14T00:26:44.530Z,87.30
2018-04-14T00:29:12.901Z,81.03
2018-04-14T00:31:41.269Z,71.80
2018-04-14T00:34:09.637Z,70.50
2018-04-14T00:36:38.006Z,72.83
2018-04-14T00:39:06.426Z,70.47
2018-04-14T00:41:34.882Z,68.27
2018-04-14T00:44:03.248Z,72.20
2018-04-14T00:46:31.614Z,73.67
2018-04-14T00:48:59.980Z,73.03
2018-04-14T00:51:28.389Z,77.60
2018-04-14T00:53:56.773Z,79.70
2018-04-14T00:56:25.258Z,74.43
2018-04-14T00:58:53.641Z,72.30
2018-04-14T01:01:22.197Z,74.27
2018-04-14T01:03:50.618Z,82.43
2018-04-14T01:06:19.009Z,83.43
2018-04-14T01:08:47.368Z,82.70
2018-04-14T01:11:15.765Z,70.47
2018-04-14T01:13:44.203Z,73.37
2018-04-14T01:16:12.617Z,68.53
2018-04-14T01:18:41.155Z,73.27
2018-04-14T01:21:09.558Z,74.10
2018-04-14T01:23:37.937Z,75.67
2018-04-14T01:26:06.301Z,71.50
2018-04-14T01:28:34.669Z,69.40
2018-04-14T01:31:03.202Z,70.20
2018-04-14T01:33:31.561Z,68.63
2018-04-14T01:35:59.927Z,62.97
2018-04-14T01:38:28.291Z,61.23
2018-04-14T01:40:56.690Z,59.50
2018-04-14T01:43:25.227Z,60.80
2018-04-14T01:45:53.625Z,64.37
2018-04-14T01:48:22.100Z,62.40
2018-04-14T01:50:50.505Z,55.40
2018-04-14T01:53:18.988Z,61.17
2018-04-14T01:55:47.532Z,54.20
2018-04-14T01:58:16.129Z,49.30
2018-04-14T02:00:44.547Z,50.70
2018-04-14T02:03:12.953Z,52.77
2018-04-14T02:05:41.356Z,50.87
2018-04-14T02:08:09.820Z,50.67
2018-04-14T02:10:38.277Z,48.40
2018-04-14T02:13:06.676Z,49.93
2018-04-14T02:15:35.043Z,54.00
2018-04-14T02:18:03.522Z,50.50
2018-04-14T02:20:31.938Z,52.30
2018-04-14T02:23:00.317Z,50.00
2018-04-14T02:25:28.703Z,48.60
2018-04-14T02:27:57.103Z,51.13
2018-04-14T02:30:25.505Z,45.67
2018-04-14T02:32:53.985Z,45.20
2018-04-14T02:35:22.445Z,44.30
2018-04-14T02:37:50.885Z,44.60
2018-04-14T02:40:19.282Z,43.13
2018-04-14T02:42:47.649Z,47.23
2018-04-14T02:45:16.043Z,44.60
2018-04-14T02:47:44.492Z,43.47
2018-04-14T02:50:12.873Z,43.03
2018-04-14T02:52:41.388Z,40.77
2018-04-14T02:55:09.755Z,42.07
2018-04-14T02:57:38.112Z,45.20
2018-04-14T03:00:30.116Z,42.70
2018-04-14T03:02:58.481Z,41.07
2018-04-14T03:05:26.906Z,41.43
2018-04-14T03:07:55.353Z,45.47
2018-04-14T03:10:23.754Z,46.57
2018-04-14T03:12:52.116Z,52.00
2018-04-14T03:15:20.516Z,44.50
2018-04-14T03:17:49.033Z,47.50
2018-04-14T03:20:17.406Z,45.20
2018-04-14T03:22:45.762Z,46.93
2018-04-14T03:25:14.124Z,50.00
2018-04-14T03:27:42.493Z,45.60
2018-04-14T03:30:11.043Z,45.53
2018-04-14T03:32:39.418Z,42.37
2018-04-14T03:35:07.789Z,43.30
2018-04-14T03:37:36.176Z,38.30
2018-04-14T03:40:04.536Z,45.03
2018-04-14T03:42:32.976Z,44.20
2018-04-14T03:45:01.354Z,43.00
2018-04-14T03:47:29.823Z,38.97
2018-04-14T03:49:58.262Z,44.77
2018-04-14T03:52:26.641Z,46.13
2018-04-14T03:54:55.198Z,44.70
2018-04-14T03:57:23.563Z,42.80
2018-04-14T03:59:51.959Z,47.30
2018-04-14T04:02:20.414Z,51.27
2018-04-14T04:04:48.813Z,50.07
2018-04-14T04:07:17.278Z,48.40
2018-04-14T04:09:45.676Z,57.57
2018-04-14T04:12:14.057Z,55.90
2018-04-14T04:14:42.524Z,48.00
2018-04-14T04:17:10.897Z,49.30
2018-04-14T04:19:50.951Z,49.60
2018-04-14T04:22:31.194Z,52.03
2018-04-14T04:28:04.131Z,55.73
2018-04-14T04:30:32.282Z,52.00
2018-04-14T04:33:00.383Z,51.30
2018-04-14T04:35:28.481Z,64.43
2018-04-14T04:37:56.591Z,59.50
2018-04-14T04:40:24.871Z,55.90
2018-04-14T04:42:53.043Z,56.10
2018-04-14T04:45:21.145Z,56.67
2018-04-14T04:47:49.242Z,60.57
2018-04-14T04:50:17.414Z,58.40
2018-04-14T04:52:45.549Z,60.27
2018-04-14T04:55:13.647Z,61.13
2018-04-14T04:57:41.745Z,57.80
2018-04-14T05:00:09.844Z,58.10
2018-04-14T05:02:38.128Z,58.33
2018-04-14T05:05:06.237Z,56.90
2018-04-14T05:07:34.348Z,55.00
2018-04-14T05:10:02.464Z,55.10
2018-04-14T05:12:30.579Z,56.73
2018-04-14T05:14:58.737Z,57.03
2018-04-14T05:17:26.862Z,58.73
2018-04-14T05:19:54.976Z,59.97
2018-04-14T05:22:23.106Z,49.57
2018-04-14T05:24:51.230Z,57.33
2018-04-14T05:27:19.353Z,62.20
2018-04-14T05:29:47.477Z,51.00
2018-04-14T05:32:15.629Z,49.37
2018-04-14T05:34:43.849Z,46.23
2018-04-14T05:37:11.965Z,41.40
2018-04-14T05:39:40.159Z,44.70
2018-04-14T05:42:08.279Z,43.00
2018-04-14T05:44:36.443Z,35.00
2018-04-14T05:47:04.566Z,39.03
2018-04-14T05:49:32.651Z,34.17
2018-04-14T05:52:00.769Z,34.73
2018-04-14T05:54:29.006Z,38.40
2018-04-14T05:56:57.197Z,32.40
2018-04-14T05:59:25.318Z,36.07
2018-04-14T06:01:53.546Z,37.70
2018-04-14T06:04:21.682Z,36.70
2018-04-14T06:06:49.794Z,33.93
2018-04-14T06:09:18.102Z,35.93
2018-04-14T06:11:46.232Z,33.97
2018-04-14T06:14:14.350Z,39.50
2018-04-14T06:16:42.561Z,34.37
2018-04-14T06:19:10.730Z,31.20
2018-04-14T06:21:38.993Z,32.63
2018-04-14T06:24:07.165Z,26.80
2018-04-14T06:26:35.252Z,28.53
2018-04-14T06:29:03.344Z,26.13
2018-04-14T06:31:31.456Z,24.40
2018-04-14T06:34:00.646Z,22.80
2018-04-14T06:36:28.718Z,21.53
2018-04-14T06:38:56.798Z,26.33
2018-04-14T06:41:25.126Z,22.37
2018-04-14T06:43:53.212Z,23.40
2018-04-14T06:46:21.399Z,20.33
2018-04-14T06:48:49.486Z,20.90
2018-04-14T06:51:17.567Z,17.30
2018-04-14T06:53:45.653Z,17.07
2018-04-14T06:56:13.742Z,16.40
2018-04-14T06:58:41.905Z,17.00
2018-04-14T07:01:10.033Z,18.47
2018-04-14T07:03:38.125Z,14.70
2018-04-14T07:06:06.215Z,21.53
2018-04-14T07:08:34.347Z,14.03
2018-04-14T07:11:02.493Z,14.07
2018-04-14T07:13:30.806Z,15.30
2018-04-14T07:15:58.922Z,14.43
2018-04-14T07:18:27.074Z,14.47
2018-04-14T07:20:55.190Z,12.73
2018-04-14T07:23:23.382Z,14.83
2018-04-14T07:25:51.585Z,14.57
2018-04-14T07:28:19.704Z,16.57
2018-04-14T07:30:47.831Z,16.87
2018-04-14T07:33:15.962Z,15.37
2018-04-14T07:35:44.236Z,16.27
2018-04-14T07:38:12.369Z,16.97
2018-04-14T07:40:40.489Z,17.73
2018-04-14T07:43:08.611Z,17.93
2018-04-14T07:45:36.733Z,21.00
2018-04-14T07:48:04.885Z,22.40
2018-04-14T07:50:33.039Z,19.57
2018-04-14T07:53:01.187Z,20.10
2018-04-14T07:55:29.306Z,24.37
2018-04-14T07:57:57.483Z,21.23
2018-04-14T08:00:25.664Z,22.77
2018-04-14T08:02:53.777Z,20.13
2018-04-14T08:05:21.895Z,19.67
2018-04-14T08:07:50.036Z,16.43
2018-04-14T08:10:18.162Z,17.23
2018-04-14T08:12:46.458Z,19.20
2018-04-14T08:15:14.588Z,17.43
2018-04-14T08:17:42.706Z,16.70
2018-04-14T08:20:10.815Z,22.97
2018-04-14T08:22:38.948Z,26.80
2018-04-14T08:25:07.117Z,21.20
2018-04-14T08:27:35.237Z,21.93
2018-04-14T08:30:03.423Z,20.53
2018-04-14T08:32:31.583Z,23.00
2018-04-14T08:34:59.713Z,19.60
2018-04-14T08:37:27.934Z,20.27
2018-04-14T08:39:56.029Z,20.60
2018-04-14T08:42:24.160Z,17.47
2018-04-14T08:44:52.279Z,19.37
2018-04-14T08:47:20.397Z,24.87
2018-04-14T08:49:48.651Z,24.93
2018-04-14T08:52:16.776Z,29.10
2018-04-14T08:54:45.121Z,27.83
2018-04-14T08:57:13.208Z,28.93
2018-04-14T08:59:41.289Z,27.90
2018-04-14T09:02:10.387Z,28.07
2018-04-14T09:04:38.474Z,27.70
2018-04-14T09:07:06.744Z,25.40
2018-04-14T09:09:34.900Z,22.17
2018-04-14T09:12:02.986Z,26.13
2018-04-14T09:14:31.074Z,24.90
2018-04-14T09:16:59.177Z,24.80
2018-04-14T09:19:27.667Z,25.90
2018-04-14T09:21:56.072Z,23.60
2018-04-14T09:24:24.585Z,21.33
2018-04-14T09:26:53.129Z,22.33
2018-04-14T09:29:21.549Z,38.30
2018-04-14T09:31:49.985Z,22.73
2018-04-14T09:34:18.444Z,29.20
2018-04-14T09:36:46.852Z,23.17
2018-04-14T09:39:15.216Z,19.40
2018-04-14T09:41:43.674Z,22.97
2018-04-14T09:44:12.062Z,21.77
2018-04-14T09:46:40.472Z,21.53
2018-04-14T09:49:08.864Z,19.40
2018-04-14T09:51:37.256Z,19.43
2018-04-14T09:54:05.730Z,19.93
2018-04-14T09:56:34.117Z,20.20
2018-04-14T09:59:02.505Z,25.23
2018-04-14T10:01:30.903Z,18.20
2018-04-14T10:03:59.420Z,16.37
2018-04-14T10:06:27.903Z,16.97
2018-04-14T10:08:56.288Z,17.60
2018-04-14T10:11:24.705Z,16.40
2018-04-14T10:13:53.318Z,16.17
2018-04-14T10:16:21.812Z,14.40
2018-04-14T10:18:50.224Z,16.60
2018-04-14T10:21:18.613Z,18.80
2018-04-14T10:23:47.148Z,14.80
2018-04-14T10:26:15.517Z,15.53
2018-04-14T10:28:43.955Z,14.83
2018-04-14T10:31:12.437Z,17.63
2018-04-14T10:33:40.854Z,14.57
2018-04-14T10:36:09.231Z,14.00
2018-04-14T10:38:37.660Z,12.33
2018-04-14T10:41:06.214Z,12.83
2018-04-14T10:43:34.585Z,12.53
2018-04-14T10:46:02.986Z,14.70
2018-04-14T10:48:31.385Z,11.87
2018-04-14T10:50:59.879Z,11.57
2018-04-14T10:53:28.294Z,16.00
2018-04-14T10:55:56.758Z,12.60
2018-04-14T10:58:25.264Z,13.87
2018-04-14T11:00:53.672Z,12.93
2018-04-14T11:03:22.042Z,16.63
2018-04-14T11:05:50.428Z,12.03
2018-04-14T11:08:18.777Z,9.30
2018-04-14T11:10:47.229Z,10.00
2018-04-14T11:13:15.591Z,9.17
2018-04-14T11:15:43.948Z,7.37
2018-04-14T11:18:12.315Z,10.70
2018-04-14T11:20:40.667Z,8.53
2018-04-14T11:23:09.099Z,6.90
2018-04-14T11:25:37.461Z,6.60
2018-04-14T11:28:05.809Z,7.87
2018-04-14T11:30:34.189Z,5.50
2018-04-14T11:33:02.656Z,5.40
2018-04-14T11:35:32.120Z,5.97
2018-04-14T11:38:00.476Z,5.27
2018-04-14T11:40:28.833Z,12.40
2018-04-14T11:42:57.189Z,7.37
2018-04-14T11:45:25.545Z,10.53
2018-04-14T11:47:53.899Z,14.10
2018-04-14T11:50:22.271Z,7.53
2018-04-14T11:52:50.774Z,6.10
2018-04-14T11:55:19.141Z,7.33
2018-04-14T11:57:47.512Z,7.47
2018-04-14T12:00:15.887Z,3.17
2018-04-14T12:02:44.327Z,4.00
2018-04-14T12:05:12.826Z,3.50
2018-04-14T12:07:41.175Z,3.80
2018-04-14T12:10:09.544Z,5.97
2018-04-14T12:12:37.899Z,3.93
2018-04-14T12:15:06.272Z,5.77
2018-04-14T12:17:34.714Z,7.47
2018-04-14T12:20:03.054Z,6.00
2018-04-14T12:22:31.421Z,5.40
2018-04-14T12:24:59.773Z,3.77
2018-04-14T12:27:28.129Z,3.40
2018-04-14T12:29:56.555Z,3.07
2018-04-14T12:32:24.934Z,2.90
2018-04-14T12:34:53.286Z,3.60
2018-04-14T12:37:21.772Z,3.87
2018-04-14T12:39:50.139Z,3.90
2018-04-14T12:42:18.558Z,3.50
2018-04-14T12:44:46.926Z,5.53
2018-04-14T12:47:15.276Z,3.20
2018-04-14T12:49:43.633Z,5.80
2018-04-14T12:52:11.989Z,6.03
2018-04-14T12:54:40.433Z,7.13
2018-04-14T12:57:08.795Z,5.30
2018-04-14T12:59:37.156Z,7.27
2018-04-14T13:02:05.607Z,6.10
2018-04-14T13:04:34.001Z,4.47
2018-04-14T13:07:02.395Z,10.20
2018-04-14T13:09:30.801Z,5.13
2018-04-14T13:11:59.189Z,4.60
2018-04-14T13:14:27.634Z,6.53
2018-04-14T13:16:56.042Z,4.57
2018-04-14T13:19:24.435Z,4.33
2018-04-14T13:21:52.905Z,3.77
2018-04-14T13:24:21.301Z,5.97
2018-04-14T13:26:49.903Z,3.87
2018-04-14T13:29:19.280Z,4.83
2018-04-14T13:31:47.662Z,4.83
2018-04-14T13:34:16.055Z,4.93
2018-04-14T13:36:44.710Z,3.90
2018-04-14T13:39:13.168Z,3.40
2018-04-14T13:41:41.559Z,6.70
2018-04-14T13:44:10.033Z,5.33
2018-04-14T13:46:38.446Z,3.33
2018-04-14T13:49:06.837Z,3.10
2018-04-14T13:51:35.373Z,7.43
2018-04-14T13:54:03.765Z,3.40
2018-04-14T13:56:33.041Z,3.13
2018-04-14T13:59:01.403Z,3.90
2018-04-14T14:01:29.774Z,4.40
2018-04-14T14:03:58.199Z,4.40
2018-04-14T14:06:26.554Z,3.97
2018-04-14T14:08:54.934Z,3.43
2018-04-14T14:11:23.304Z,4.17
2018-04-14T14:13:51.663Z,4.43
2018-04-14T14:16:20.038Z,3.00
2018-04-14T14:18:48.391Z,3.67
2018-04-14T14:21:16.794Z,4.50
2018-04-14T14:23:45.255Z,4.17
2018-04-14T14:26:13.706Z,6.20
2018-04-14T14:28:42.182Z,3.50
2018-04-14T14:31:10.563Z,4.13
2018-04-14T14:33:38.942Z,3.70
2018-04-14T14:36:07.346Z,3.57
2018-04-14T14:38:35.902Z,3.80
2018-04-14T14:41:04.324Z,4.27
2018-04-14T14:43:32.838Z,8.10
2018-04-14T14:46:01.294Z,4.10
2018-04-14T14:48:29.826Z,4.20
2018-04-14T14:50:58.202Z,3.70
2018-04-14T14:53:26.614Z,3.57
2018-04-14T14:55:55.164Z,3.83
2018-04-14T14:58:23.561Z,5.40
2018-04-14T15:00:51.950Z,5.50
2018-04-14T15:03:20.411Z,3.77
2018-04-14T15:05:48.872Z,3.63
2018-04-14T15:08:17.264Z,8.63
2018-04-14T15:10:45.659Z,6.37
2018-04-14T15:13:14.128Z,3.97
2018-04-14T15:15:42.545Z,3.53
2018-04-14T15:18:10.993Z,4.23
2018-04-14T15:20:39.368Z,4.50
2018-04-14T15:23:07.842Z,4.80
2018-04-14T15:25:36.479Z,4.40
2018-04-14T15:28:04.868Z,4.40
2018-04-14T15:30:33.340Z,4.43
2018-04-14T15:33:01.732Z,3.80
2018-04-14T15:35:30.251Z,10.70
2018-04-14T15:37:58.650Z,5.90
2018-04-14T15:40:27.038Z,7.77
2018-04-14T15:42:55.430Z,6.07
2018-04-14T15:45:23.818Z,4.73
2018-04-14T15:47:52.280Z,12.20
2018-04-14T15:50:20.673Z,6.07
2018-04-14T15:52:49.042Z,5.97
2018-04-14T15:55:17.438Z,6.20
2018-04-14T15:57:45.851Z,4.30
2018-04-14T16:00:14.387Z,6.20
2018-04-14T16:02:42.793Z,4.57
2018-04-14T16:05:11.178Z,3.70
2018-04-14T16:07:39.610Z,4.70
2018-04-14T16:10:08.009Z,4.40
2018-04-14T16:12:36.573Z,3.87
2018-04-14T16:15:04.974Z,3.90
2018-04-14T16:17:33.383Z,9.30
2018-04-14T16:20:01.797Z,3.57
2018-04-14T16:22:30.285Z,3.47
2018-04-14T16:24:58.797Z,4.40
2018-04-14T16:27:27.194Z,3.23
2018-04-14T16:29:55.648Z,8.37
2018-04-14T16:32:24.041Z,3.63
2018-04-14T16:34:52.391Z,5.83
2018-04-14T16:37:20.839Z,10.53
2018-04-14T16:39:49.193Z,3.70
2018-04-14T16:42:17.613Z,4.57
2018-04-14T16:44:46.003Z,5.87
2018-04-14T16:47:14.371Z,6.10
2018-04-14T16:49:42.748Z,4.17
2018-04-14T16:52:11.120Z,5.20
2018-04-14T16:54:39.494Z,4.27
2018-04-14T16:57:07.877Z,3.70
2018-04-14T16:59:36.414Z,2.73
2018-04-14T17:02:04.933Z,2.10
2018-04-14T17:04:33.355Z,2.23
2018-04-14T17:07:01.761Z,29.33
2018-04-14T17:09:30.482Z,60.83
2018-04-14T17:11:59.505Z,62.83
2018-04-14T17:14:27.998Z,58.73
2018-04-14T17:16:56.417Z,72.00
2018-04-14T17:19:24.827Z,67.30
2018-04-14T17:21:53.262Z,74.03
2018-04-14T17:24:21.774Z,70.27
2018-04-14T17:26:50.157Z,77.00
2018-04-14T17:29:18.573Z,81.50
2018-04-14T17:31:47.025Z,78.10
2018-04-14T17:34:15.441Z,84.60
2018-04-14T17:36:44.521Z,82.47
2018-04-14T17:39:13.644Z,72.80
2018-04-14T17:41:42.124Z,70.03
2018-04-14T17:44:10.540Z,72.90
2018-04-14T17:46:39.075Z,73.97
2018-04-14T17:49:07.488Z,64.03
2018-04-14T17:51:35.925Z,51.33
2018-04-14T17:54:04.337Z,61.43
2018-04-14T17:56:32.760Z,61.93
2018-04-14T17:59:01.866Z,52.40
2018-04-14T18:01:30.332Z,49.67
2018-04-14T18:03:58.808Z,54.53
2018-04-14T18:06:27.231Z,30.07
2018-04-14T18:08:55.640Z,23.83
2018-04-14T18:11:24.184Z,23.90
2018-04-14T18:13:52.600Z,21.43
2018-04-14T18:16:21.012Z,20.20
2018-04-14T18:18:49.507Z,27.00
2018-04-14T18:21:17.932Z,22.23
2018-04-14T18:23:46.522Z,32.50
2018-04-14T18:26:15.506Z,31.53
2018-04-14T18:28:43.942Z,30.17
2018-04-14T18:31:12.367Z,18.83
2018-04-14T18:33:40.785Z,24.43
2018-04-14T18:36:09.277Z,24.17
2018-04-14T18:38:37.688Z,31.70
2018-04-14T18:41:06.092Z,19.53
2018-04-14T18:43:34.631Z,20.97
2018-04-14T18:46:03.072Z,19.27
2018-04-14T18:48:31.770Z,22.17
2018-04-14T18:51:00.475Z,21.83
2018-04-14T18:53:28.871Z,18.07
2018-04-14T18:55:57.348Z,21.90
2018-04-14T18:58:25.722Z,15.50
2018-04-14T19:00:54.188Z,23.50
2018-04-14T19:03:22.584Z,15.73
2018-04-14T19:05:51.012Z,16.93
2018-04-14T19:08:19.391Z,15.10
2018-04-14T19:10:47.771Z,14.83
2018-04-14T19:13:16.230Z,16.77
2018-04-14T19:15:46.459Z,17.20
2018-04-14T19:18:14.831Z,19.27
2018-04-14T19:20:43.206Z,8.80
2018-04-14T19:23:11.584Z,7.37
2018-04-14T19:25:40.050Z,12.20
2018-04-14T19:28:08.471Z,15.50
2018-04-14T19:30:36.877Z,6.33
2018-04-14T19:33:05.370Z,7.10
2018-04-14T19:35:33.773Z,4.20
2018-04-14T19:38:02.556Z,5.60
2018-04-14T19:40:30.946Z,8.90
2018-04-14T19:42:59.403Z,14.67
2018-04-14T19:45:27.821Z,12.83
2018-04-14T19:47:56.238Z,34.17
2018-04-14T19:50:24.640Z,14.97
2018-04-14T19:52:53.057Z,18.10
2018-04-14T19:55:21.507Z,11.60
2018-04-14T19:57:49.920Z,11.33
2018-04-14T20:00:18.347Z,10.87
2018-04-14T20:02:46.755Z,12.37
2018-04-14T20:05:15.719Z,12.67
2018-04-14T20:07:44.305Z,15.90
2018-04-14T20:10:12.739Z,22.83
2018-04-14T20:12:41.331Z,19.07
2018-04-14T20:15:09.766Z,20.83
2018-04-14T20:17:38.282Z,17.37
2018-04-14T20:20:06.811Z,22.10
2018-04-14T20:22:35.248Z,24.63
2018-04-14T20:25:03.656Z,21.27
2018-04-14T20:27:32.068Z,20.23
2018-04-14T20:30:00.485Z,22.50
2018-04-14T20:32:29.047Z,22.83
2018-04-14T20:34:57.935Z,16.70
2018-04-14T20:37:26.614Z,23.10
2018-04-14T20:39:55.140Z,12.93
2018-04-14T20:42:23.551Z,16.60
2018-04-14T20:44:52.074Z,21.90
2018-04-14T20:47:20.489Z,15.13
2018-04-14T20:49:49.055Z,14.83
2018-04-14T20:52:17.451Z,12.17
2018-04-14T20:54:46.808Z,6.93
2018-04-14T20:57:15.517Z,9.83
2018-04-14T20:59:43.913Z,14.67
2018-04-14T21:02:12.357Z,6.47
2018-04-14T21:04:40.770Z,5.10
2018-04-14T21:07:09.264Z,4.70
2018-04-14T21:09:37.643Z,5.93
2018-04-14T21:12:06.053Z,6.43
2018-04-14T21:14:34.571Z,5.23
2018-04-14T21:17:02.962Z,3.87
2018-04-14T21:19:32.195Z,4.80
2018-04-14T21:22:00.847Z,3.40
2018-04-14T21:24:29.251Z,7.77
2018-04-14T21:26:57.625Z,9.50
2018-04-14T21:29:25.994Z,3.93
2018-04-14T21:31:54.412Z,7.93
2018-04-14T21:34:22.888Z,7.00
2018-04-14T21:36:51.351Z,3.97
2018-04-14T21:39:19.745Z,4.93
2018-04-14T21:41:48.112Z,7.00
2018-04-14T21:44:16.817Z,4.10
2018-04-14T21:46:45.486Z,4.63
2018-04-14T21:49:13.868Z,7.50
2018-04-14T21:51:42.360Z,5.07
2018-04-14T21:54:10.719Z,4.00
2018-04-14T21:56:39.133Z,5.53
2018-04-14T21:59:07.523Z,13.27
2018-04-14T22:01:35.980Z,10.50
2018-04-14T22:04:04.383Z,5.70
2018-04-14T22:06:33.003Z,6.40
2018-04-14T22:09:01.448Z,5.03
2018-04-14T22:11:30.113Z,4.07
2018-04-14T22:13:58.601Z,4.90
2018-04-14T22:16:27.016Z,4.37
2018-04-14T22:18:55.401Z,5.67
2018-04-14T22:21:23.788Z,4.43
2018-04-14T22:23:52.150Z,5.63
2018-04-14T22:26:20.578Z,5.70
2018-04-14T22:28:49.038Z,8.97
2018-04-14T22:31:17.487Z,5.17
2018-04-14T22:33:46.121Z,4.20
2018-04-14T22:36:14.489Z,3.67
2018-04-14T22:38:42.946Z,4.50
2018-04-14T22:41:11.307Z,3.47
2018-04-14T22:43:39.688Z,5.90
2018-04-14T22:46:08.055Z,5.40
2018-04-14T22:48:36.422Z,7.03
2018-04-14T22:51:04.937Z,5.77
2018-04-14T22:53:33.305Z,9.23
2018-04-14T22:56:01.704Z,6.47
2018-04-14T22:58:30.116Z,5.30
2018-04-14T23:00:58.527Z,6.63
2018-04-14T23:03:26.877Z,3.97
2018-04-14T23:05:55.324Z,4.47
2018-04-14T23:08:23.684Z,7.37
2018-04-14T23:10:52.134Z,3.43
2018-04-14T23:13:20.494Z,4.43
2018-04-14T23:15:48.874Z,3.70
2018-04-14T23:18:17.289Z,7.70
2018-04-14T23:20:45.707Z,5.20
2018-04-14T23:23:14.753Z,5.97
2018-04-14T23:25:43.552Z,4.23
2018-04-14T23:28:12.101Z,3.20
2018-04-14T23:30:40.561Z,3.40
2018-04-14T23:33:08.948Z,3.77
2018-04-14T23:35:37.457Z,4.30
2018-04-14T23:38:05.855Z,4.83
2018-04-14T23:40:34.310Z,10.70
2018-04-14T23:43:02.726Z,5.87
2018-04-14T23:45:31.082Z,5.60
2018-04-14T23:47:59.467Z,6.53
2018-04-14T23:50:27.943Z,9.27
2018-04-14T23:52:56.319Z,14.97
2018-04-14T23:55:24.698Z,8.37
2018-04-14T23:57:53.350Z,11.40
